Carinhanha, Brazil
Current Conditions -  °F | °C
As of 1:00 PM on Sunday 25 Jan 2015 (Local Time) from SBMK Reporting Station
Scattered Clouds Scattered Clouds  
Wind Chill: 91°   Ceiling: Unl
Heat Index: 91°   Visibility: 6mi
Dew Point: 54°   Wind: 9mph
Humidity: 28%   Direction: 10°N
Pressure: 30"   Gusts: NA
Location:  14.3°S, 43.78°W
Report Text: SBMK 251600Z 01008KT 310V060 9999 SCT035 33/12 Q1016
Loading
Personal Weather Stations






























Interactive Weather Map New forecast layout! Learn more

10-Day Weather Forecast

Advertisements
Track Severe Weather on mobile